sensor_id;sensor_type;location;lat;lon;timestamp;temperature;humidity
37300;DHT22;23184;51.902;12.836;2023-04-15T00:02:21;7.40;99.90
37300;DHT22;23184;51.902;12.836;2023-04-15T00:04:47;7.30;99.90
37300;DHT22;23184;51.902;12.836;2023-04-15T00:07:13;7.30;99.90
37300;DHT22;23184;51.902;12.836;2023-04-15T00:09:41;7.40;99.90
37300;DHT22;23184;51.902;12.836;2023-04-15T00:12:07;7.40;99.90
37300;DHT22;23184;51.902;12.836;2023-04-15T00:14:34;7.40;99.90
37300;DHT22;23184;51.902;12.836;2023-04-15T00:17:01;7.40;99.90
37300;DHT22;23184;51.902;12.836;2023-04-15T00:19:26;7.40;99.90
37300;DHT22;23184;51.902;12.836;2023-04-15T00:21:52;7.40;99.90
37300;DHT22;23184;51.902;12.836;2023-04-15T00:24:17;7.40;99.90
37300;DHT22;23184;51.902;12.836;2023-04-15T00:26:43;7.40;99.90
37300;DHT22;23184;51.902;12.836;2023-04-15T00:29:09;7.40;99.90
37300;DHT22;23184;51.902;12.836;2023-04-15T00:31:34;7.40;99.90
37300;DHT22;23184;51.902;12.836;2023-04-15T00:34:00;7.40;99.90
37300;DHT22;23184;51.902;12.836;2023-04-15T00:36:26;7.40;99.90
37300;DHT22;23184;51.902;12.836;2023-04-15T00:38:52;7.40;99.90
37300;DHT22;23184;51.902;12.836;2023-04-15T00:41:18;7.40;99.90
37300;DHT22;23184;51.902;12.836;2023-04-15T00:43:43;7.40;99.90
37300;DHT22;23184;51.902;12.836;2023-04-15T00:46:10;7.40;99.90
37300;DHT22;23184;51.902;12.836;2023-04-15T00:48:37;7.40;99.90
37300;DHT22;23184;51.902;12.836;2023-04-15T00:51:03;7.40;99.90
37300;DHT22;23184;51.902;12.836;2023-04-15T00:53:28;7.40;99.90
37300;DHT22;23184;51.902;12.836;2023-04-15T00:55:54;7.40;99.90
37300;DHT22;23184;51.902;12.836;2023-04-15T00:58:20;7.40;99.90
37300;DHT22;23184;51.902;12.836;2023-04-15T01:00:46;7.40;99.90
37300;DHT22;23184;51.902;12.836;2023-04-15T01:03:12;7.40;99.90
37300;DHT22;23184;51.902;12.836;2023-04-15T01:05:38;7.40;99.90
37300;DHT22;23184;51.902;12.836;2023-04-15T01:08:04;7.40;99.90
37300;DHT22;23184;51.902;12.836;2023-04-15T01:10:30;7.40;99.90
37300;DHT22;23184;51.902;12.836;2023-04-15T01:12:56;7.40;99.90
37300;DHT22;23184;51.902;12.836;2023-04-15T01:15:22;7.40;99.90
37300;DHT22;23184;51.902;12.836;2023-04-15T01:17:48;7.50;99.90
37300;DHT22;23184;51.902;12.836;2023-04-15T01:20:14;7.50;99.90
37300;DHT22;23184;51.902;12.836;2023-04-15T01:22:41;7.50;99.90
37300;DHT22;23184;51.902;12.836;2023-04-15T01:25:11;7.40;99.90
37300;DHT22;23184;51.902;12.836;2023-04-15T01:27:38;7.40;99.90
37300;DHT22;23184;51.902;12.836;2023-04-15T01:30:06;7.50;99.90
37300;DHT22;23184;51.902;12.836;2023-04-15T01:32:32;7.50;99.90
37300;DHT22;23184;51.902;12.836;2023-04-15T01:34:58;7.50;99.90
37300;DHT22;23184;51.902;12.836;2023-04-15T01:37:24;7.50;99.90
37300;DHT22;23184;51.902;12.836;2023-04-15T01:39:50;7.50;99.90
37300;DHT22;23184;51.902;12.836;2023-04-15T01:42:15;7.50;99.90
37300;DHT22;23184;51.902;12.836;2023-04-15T01:44:41;7.50;99.90
37300;DHT22;23184;51.902;12.836;2023-04-15T01:47:06;7.50;99.90
37300;DHT22;23184;51.902;12.836;2023-04-15T01:49:33;7.50;99.90
37300;DHT22;23184;51.902;12.836;2023-04-15T01:51:58;7.50;99.90
37300;DHT22;23184;51.902;12.836;2023-04-15T01:54:24;7.50;99.90
37300;DHT22;23184;51.902;12.836;2023-04-15T01:56:49;7.50;99.90
37300;DHT22;23184;51.902;12.836;2023-04-15T01:59:15;7.60;99.90
37300;DHT22;23184;51.902;12.836;2023-04-15T02:01:41;7.60;99.90
37300;DHT22;23184;51.902;12.836;2023-04-15T02:04:06;7.60;99.90
37300;DHT22;23184;51.902;12.836;2023-04-15T02:06:33;7.60;99.90
37300;DHT22;23184;51.902;12.836;2023-04-15T02:08:58;7.50;99.90
37300;DHT22;23184;51.902;12.836;2023-04-15T02:11:24;7.50;99.90
37300;DHT22;23184;51.902;12.836;2023-04-15T02:13:49;7.50;99.90
37300;DHT22;23184;51.902;12.836;2023-04-15T02:16:18;7.50;99.90
37300;DHT22;23184;51.902;12.836;2023-04-15T02:18:45;7.50;99.90
37300;DHT22;23184;51.902;12.836;2023-04-15T02:21:11;7.50;99.90
37300;DHT22;23184;51.902;12.836;2023-04-15T02:23:36;7.50;99.90
37300;DHT22;23184;51.902;12.836;2023-04-15T02:26:02;7.50;99.90
37300;DHT22;23184;51.902;12.836;2023-04-15T02:28:27;7.50;99.90
37300;DHT22;23184;51.902;12.836;2023-04-15T02:30:53;7.50;99.90
37300;DHT22;23184;51.902;12.836;2023-04-15T02:33:21;7.50;99.90
37300;DHT22;23184;51.902;12.836;2023-04-15T02:35:46;7.50;99.90
37300;DHT22;23184;51.902;12.836;2023-04-15T02:38:12;7.50;99.90
37300;DHT22;23184;51.902;12.836;2023-04-15T02:40:39;7.50;99.90
37300;DHT22;23184;51.902;12.836;2023-04-15T02:43:04;7.50;99.90
37300;DHT22;23184;51.902;12.836;2023-04-15T02:45:31;7.50;99.90
37300;DHT22;23184;51.902;12.836;2023-04-15T02:47:57;7.50;99.90
37300;DHT22;23184;51.902;12.836;2023-04-15T02:50:22;7.50;99.90
37300;DHT22;23184;51.902;12.836;2023-04-15T02:52:50;7.50;99.90
37300;DHT22;23184;51.902;12.836;2023-04-15T02:55:16;7.50;99.90
37300;DHT22;23184;51.902;12.836;2023-04-15T02:57:42;7.50;99.90
37300;DHT22;23184;51.902;12.836;2023-04-15T03:00:08;7.60;99.90
37300;DHT22;23184;51.902;12.836;2023-04-15T03:02:37;7.50;99.90
37300;DHT22;23184;51.902;12.836;2023-04-15T03:05:03;7.60;99.90
37300;DHT22;23184;51.902;12.836;2023-04-15T03:07:30;7.60;99.90
37300;DHT22;23184;51.902;12.836;2023-04-15T03:09:55;7.60;99.90
37300;DHT22;23184;51.902;12.836;2023-04-15T03:12:21;7.60;99.90
37300;DHT22;23184;51.902;12.836;2023-04-15T03:14:46;7.60;99.90
37300;DHT22;23184;51.902;12.836;2023-04-15T03:17:12;7.60;99.90
37300;DHT22;23184;51.902;12.836;2023-04-15T03:19:37;7.60;99.90
37300;DHT22;23184;51.902;12.836;2023-04-15T03:22:03;7.60;99.90
37300;DHT22;23184;51.902;12.836;2023-04-15T03:24:28;7.60;99.90
37300;DHT22;23184;51.902;12.836;2023-04-15T03:26:57;7.70;99.90
37300;DHT22;23184;51.902;12.836;2023-04-15T03:29:23;7.70;99.90
37300;DHT22;23184;51.902;12.836;2023-04-15T03:31:48;7.70;99.90
37300;DHT22;23184;51.902;12.836;2023-04-15T03:34:14;7.70;99.90
37300;DHT22;23184;51.902;12.836;2023-04-15T03:36:40;7.70;99.90
37300;DHT22;23184;51.902;12.836;2023-04-15T03:39:06;7.70;99.90
37300;DHT22;23184;51.902;12.836;2023-04-15T03:41:31;7.70;99.90
37300;DHT22;23184;51.902;12.836;2023-04-15T03:43:57;7.70;99.90
37300;DHT22;23184;51.902;12.836;2023-04-15T03:46:22;7.70;99.90
37300;DHT22;23184;51.902;12.836;2023-04-15T03:48:48;7.70;99.90
37300;DHT22;23184;51.902;12.836;2023-04-15T03:51:13;7.70;99.90
37300;DHT22;23184;51.902;12.836;2023-04-15T03:53:39;7.70;99.90
37300;DHT22;23184;51.902;12.836;2023-04-15T03:56:04;7.80;99.90
37300;DHT22;23184;51.902;12.836;2023-04-15T03:58:30;7.80;99.90
37300;DHT22;23184;51.902;12.836;2023-04-15T04:00:56;7.80;99.90
37300;DHT22;23184;51.902;12.836;2023-04-15T04:03:21;7.80;99.90
37300;DHT22;23184;51.902;12.836;2023-04-15T04:05:47;7.80;99.90
37300;DHT22;23184;51.902;12.836;2023-04-15T04:08:12;7.90;99.90
37300;DHT22;23184;51.902;12.836;2023-04-15T04:10:38;7.90;99.90
37300;DHT22;23184;51.902;12.836;2023-04-15T04:13:04;7.90;99.90
37300;DHT22;23184;51.902;12.836;2023-04-15T04:15:29;7.90;99.90
37300;DHT22;23184;51.902;12.836;2023-04-15T04:17:55;7.90;99.90
37300;DHT22;23184;51.902;12.836;2023-04-15T04:20:20;7.90;99.90
37300;DHT22;23184;51.902;12.836;2023-04-15T04:22:46;7.90;99.90
37300;DHT22;23184;51.902;12.836;2023-04-15T04:25:11;7.90;99.90
37300;DHT22;23184;51.902;12.836;2023-04-15T04:27:37;8.00;99.90
37300;DHT22;23184;51.902;12.836;2023-04-15T04:30:03;7.90;99.90
37300;DHT22;23184;51.902;12.836;2023-04-15T04:32:29;7.90;99.90
37300;DHT22;23184;51.902;12.836;2023-04-15T04:34:54;8.00;99.90
37300;DHT22;23184;51.902;12.836;2023-04-15T04:37:20;8.00;99.90
37300;DHT22;23184;51.902;12.836;2023-04-15T04:39:47;8.00;99.90
37300;DHT22;23184;51.902;12.836;2023-04-15T04:42:13;8.00;99.90
37300;DHT22;23184;51.902;12.836;2023-04-15T04:44:38;8.10;99.90
37300;DHT22;23184;51.902;12.836;2023-04-15T04:47:04;8.00;99.90
37300;DHT22;23184;51.902;12.836;2023-04-15T04:49:30;8.10;99.90
37300;DHT22;23184;51.902;12.836;2023-04-15T04:51:56;8.10;99.90
37300;DHT22;23184;51.902;12.836;2023-04-15T04:54:22;8.10;99.90
37300;DHT22;23184;51.902;12.836;2023-04-15T04:56:47;8.10;99.90
37300;DHT22;23184;51.902;12.836;2023-04-15T04:59:13;8.10;99.90
37300;DHT22;23184;51.902;12.836;2023-04-15T05:01:39;8.10;99.90
37300;DHT22;23184;51.902;12.836;2023-04-15T05:04:04;8.10;99.90
37300;DHT22;23184;51.902;12.836;2023-04-15T05:06:31;8.10;99.90
37300;DHT22;23184;51.902;12.836;2023-04-15T05:08:56;8.10;99.90
37300;DHT22;23184;51.902;12.836;2023-04-15T05:11:22;8.10;99.90
37300;DHT22;23184;51.902;12.836;2023-04-15T05:13:47;8.20;99.90
37300;DHT22;23184;51.902;12.836;2023-04-15T05:16:13;8.20;99.90
37300;DHT22;23184;51.902;12.836;2023-04-15T05:18:38;8.20;99.90
37300;DHT22;23184;51.902;12.836;2023-04-15T05:21:04;8.30;99.90
37300;DHT22;23184;51.902;12.836;2023-04-15T05:23:30;8.30;99.90
37300;DHT22;23184;51.902;12.836;2023-04-15T05:25:56;8.30;99.90
37300;DHT22;23184;51.902;12.836;2023-04-15T05:28:21;8.30;99.90
37300;DHT22;23184;51.902;12.836;2023-04-15T05:30:46;8.30;99.90
37300;DHT22;23184;51.902;12.836;2023-04-15T05:33:12;8.40;99.90
37300;DHT22;23184;51.902;12.836;2023-04-15T05:35:37;8.40;99.90
37300;DHT22;23184;51.902;12.836;2023-04-15T05:38:03;8.40;99.90
37300;DHT22;23184;51.902;12.836;2023-04-15T05:40:29;8.50;99.90
37300;DHT22;23184;51.902;12.836;2023-04-15T05:42:55;8.50;99.90
37300;DHT22;23184;51.902;12.836;2023-04-15T05:45:20;8.50;99.90
37300;DHT22;23184;51.902;12.836;2023-04-15T05:47:46;8.60;99.90
37300;DHT22;23184;51.902;12.836;2023-04-15T05:50:11;8.60;99.90
37300;DHT22;23184;51.902;12.836;2023-04-15T05:52:37;8.60;99.90
37300;DHT22;23184;51.902;12.836;2023-04-15T05:55:02;8.70;99.90
37300;DHT22;23184;51.902;12.836;2023-04-15T05:57:28;8.70;99.90
37300;DHT22;23184;51.902;12.836;2023-04-15T05:59:53;8.80;99.90
37300;DHT22;23184;51.902;12.836;2023-04-15T06:02:21;8.80;99.90
37300;DHT22;23184;51.902;12.836;2023-04-15T06:04:46;8.80;99.90
37300;DHT22;23184;51.902;12.836;2023-04-15T06:07:12;8.90;99.90
37300;DHT22;23184;51.902;12.836;2023-04-15T06:09:38;8.90;99.90
37300;DHT22;23184;51.902;12.836;2023-04-15T06:12:03;8.90;99.90
37300;DHT22;23184;51.902;12.836;2023-04-15T06:14:30;8.90;99.90
37300;DHT22;23184;51.902;12.836;2023-04-15T06:16:56;9.00;99.90
37300;DHT22;23184;51.902;12.836;2023-04-15T06:19:21;9.00;99.90
37300;DHT22;23184;51.902;12.836;2023-04-15T06:21:47;9.00;99.90
37300;DHT22;23184;51.902;12.836;2023-04-15T06:24:12;9.00;99.90
37300;DHT22;23184;51.902;12.836;2023-04-15T06:26:38;9.00;99.90
37300;DHT22;23184;51.902;12.836;2023-04-15T06:29:03;9.10;99.90
37300;DHT22;23184;51.902;12.836;2023-04-15T06:31:29;9.00;99.90
37300;DHT22;23184;51.902;12.836;2023-04-15T06:33:54;9.10;99.90
37300;DHT22;23184;51.902;12.836;2023-04-15T06:36:20;9.20;99.90
37300;DHT22;23184;51.902;12.836;2023-04-15T06:38:46;9.20;99.90
37300;DHT22;23184;51.902;12.836;2023-04-15T06:41:11;9.20;99.90
37300;DHT22;23184;51.902;12.836;2023-04-15T06:43:37;9.30;99.90
37300;DHT22;23184;51.902;12.836;2023-04-15T06:46:03;9.30;99.90
37300;DHT22;23184;51.902;12.836;2023-04-15T06:48:28;9.20;99.90
37300;DHT22;23184;51.902;12.836;2023-04-15T06:50:54;9.30;99.90
37300;DHT22;23184;51.902;12.836;2023-04-15T06:53:19;9.30;99.90
37300;DHT22;23184;51.902;12.836;2023-04-15T06:55:46;9.30;99.90
37300;DHT22;23184;51.902;12.836;2023-04-15T06:58:11;9.30;99.90
37300;DHT22;23184;51.902;12.836;2023-04-15T07:00:37;9.30;99.90
37300;DHT22;23184;51.902;12.836;2023-04-15T07:03:03;9.30;99.90
37300;DHT22;23184;51.902;12.836;2023-04-15T07:05:29;9.30;99.90
37300;DHT22;23184;51.902;12.836;2023-04-15T07:07:56;9.30;99.90
37300;DHT22;23184;51.902;12.836;2023-04-15T07:10:22;9.30;99.90
37300;DHT22;23184;51.902;12.836;2023-04-15T07:12:48;9.30;99.90
37300;DHT22;23184;51.902;12.836;2023-04-15T07:15:15;9.30;99.90
37300;DHT22;23184;51.902;12.836;2023-04-15T07:17:40;9.30;99.90
37300;DHT22;23184;51.902;12.836;2023-04-15T07:20:08;9.30;99.90
37300;DHT22;23184;51.902;12.836;2023-04-15T07:22:33;9.30;99.90
37300;DHT22;23184;51.902;12.836;2023-04-15T07:24:59;9.40;99.90
37300;DHT22;23184;51.902;12.836;2023-04-15T07:27:24;9.40;99.90
37300;DHT22;23184;51.902;12.836;2023-04-15T07:29:50;9.40;99.90
37300;DHT22;23184;51.902;12.836;2023-04-15T07:32:16;9.40;99.90
37300;DHT22;23184;51.902;12.836;2023-04-15T07:34:42;9.40;99.90
37300;DHT22;23184;51.902;12.836;2023-04-15T07:37:08;9.40;99.90
37300;DHT22;23184;51.902;12.836;2023-04-15T07:39:34;9.50;99.90
37300;DHT22;23184;51.902;12.836;2023-04-15T07:41:59;9.50;99.90
37300;DHT22;23184;51.902;12.836;2023-04-15T07:44:26;9.50;99.90
37300;DHT22;23184;51.902;12.836;2023-04-15T07:46:51;9.50;99.90
37300;DHT22;23184;51.902;12.836;2023-04-15T07:49:16;9.50;99.90
37300;DHT22;23184;51.902;12.836;2023-04-15T07:51:43;9.50;99.90
37300;DHT22;23184;51.902;12.836;2023-04-15T07:54:09;9.60;99.90
37300;DHT22;23184;51.902;12.836;2023-04-15T07:56:34;9.60;99.90
37300;DHT22;23184;51.902;12.836;2023-04-15T07:59:00;9.60;99.90
37300;DHT22;23184;51.902;12.836;2023-04-15T08:01:30;9.60;99.90
37300;DHT22;23184;51.902;12.836;2023-04-15T08:03:56;9.60;99.90
37300;DHT22;23184;51.902;12.836;2023-04-15T08:06:21;9.60;99.90
37300;DHT22;23184;51.902;12.836;2023-04-15T08:08:47;9.70;99.90
37300;DHT22;23184;51.902;12.836;2023-04-15T08:11:12;9.70;99.90
37300;DHT22;23184;51.902;12.836;2023-04-15T08:13:38;9.70;99.90
37300;DHT22;23184;51.902;12.836;2023-04-15T08:16:21;9.70;99.90
37300;DHT22;23184;51.902;12.836;2023-04-15T08:18:48;9.70;99.90
37300;DHT22;23184;51.902;12.836;2023-04-15T08:21:14;9.80;99.90
37300;DHT22;23184;51.902;12.836;2023-04-15T08:23:40;9.80;99.90
37300;DHT22;23184;51.902;12.836;2023-04-15T08:26:05;9.80;99.90
37300;DHT22;23184;51.902;12.836;2023-04-15T08:28:31;9.90;99.90
37300;DHT22;23184;51.902;12.836;2023-04-15T08:30:57;10.00;99.90
37300;DHT22;23184;51.902;12.836;2023-04-15T08:33:22;10.00;99.90
37300;DHT22;23184;51.902;12.836;2023-04-15T08:35:48;10.00;99.90
37300;DHT22;23184;51.902;12.836;2023-04-15T08:38:14;10.00;99.90
37300;DHT22;23184;51.902;12.836;2023-04-15T08:40:44;10.10;99.90
37300;DHT22;23184;51.902;12.836;2023-04-15T08:43:12;10.10;99.90
37300;DHT22;23184;51.902;12.836;2023-04-15T08:45:40;10.10;99.90
37300;DHT22;23184;51.902;12.836;2023-04-15T08:48:06;10.10;99.90
37300;DHT22;23184;51.902;12.836;2023-04-15T08:50:34;10.10;99.90
37300;DHT22;23184;51.902;12.836;2023-04-15T08:52:59;10.10;99.90
37300;DHT22;23184;51.902;12.836;2023-04-15T08:55:29;10.10;99.90
37300;DHT22;23184;51.902;12.836;2023-04-15T08:57:55;10.10;99.90
37300;DHT22;23184;51.902;12.836;2023-04-15T09:00:21;10.10;99.90
37300;DHT22;23184;51.902;12.836;2023-04-15T09:02:47;10.10;99.90
37300;DHT22;23184;51.902;12.836;2023-04-15T09:05:12;10.10;99.90
37300;DHT22;23184;51.902;12.836;2023-04-15T09:07:38;10.10;99.90
37300;DHT22;23184;51.902;12.836;2023-04-15T09:10:04;10.00;99.90
37300;DHT22;23184;51.902;12.836;2023-04-15T09:12:29;10.00;99.90
37300;DHT22;23184;51.902;12.836;2023-04-15T09:14:56;10.00;99.90
37300;DHT22;23184;51.902;12.836;2023-04-15T09:17:21;9.90;99.90
37300;DHT22;23184;51.902;12.836;2023-04-15T09:19:49;9.90;99.90
37300;DHT22;23184;51.902;12.836;2023-04-15T09:22:31;9.90;99.90
37300;DHT22;23184;51.902;12.836;2023-04-15T09:24:57;9.90;99.90
37300;DHT22;23184;51.902;12.836;2023-04-15T09:27:22;9.90;99.90
37300;DHT22;23184;51.902;12.836;2023-04-15T09:29:49;9.90;99.90
37300;DHT22;23184;51.902;12.836;2023-04-15T09:32:15;9.90;99.90
37300;DHT22;23184;51.902;12.836;2023-04-15T09:34:41;9.90;99.90
37300;DHT22;23184;51.902;12.836;2023-04-15T09:37:07;9.90;99.90
37300;DHT22;23184;51.902;12.836;2023-04-15T09:40:01;9.90;99.90
37300;DHT22;23184;51.902;12.836;2023-04-15T09:42:26;9.90;99.90
37300;DHT22;23184;51.902;12.836;2023-04-15T09:44:52;10.00;99.90
37300;DHT22;23184;51.902;12.836;2023-04-15T09:47:31;10.00;99.90
37300;DHT22;23184;51.902;12.836;2023-04-15T09:49:58;10.00;99.90
37300;DHT22;23184;51.902;12.836;2023-04-15T09:52:24;10.00;99.90
37300;DHT22;23184;51.902;12.836;2023-04-15T09:54:52;9.90;99.90
37300;DHT22;23184;51.902;12.836;2023-04-15T09:57:19;9.90;99.90
37300;DHT22;23184;51.902;12.836;2023-04-15T09:59:46;9.90;99.90
37300;DHT22;23184;51.902;12.836;2023-04-15T10:02:12;9.90;99.90
37300;DHT22;23184;51.902;12.836;2023-04-15T10:04:40;9.90;99.90
37300;DHT22;23184;51.902;12.836;2023-04-15T10:07:07;9.90;99.90
37300;DHT22;23184;51.902;12.836;2023-04-15T10:09:34;9.90;99.90
37300;DHT22;23184;51.902;12.836;2023-04-15T10:12:02;9.90;99.90
37300;DHT22;23184;51.902;12.836;2023-04-15T10:14:32;9.90;99.90
37300;DHT22;23184;51.902;12.836;2023-04-15T10:17:00;9.90;99.90
37300;DHT22;23184;51.902;12.836;2023-04-15T10:19:26;9.90;99.90
37300;DHT22;23184;51.902;12.836;2023-04-15T10:21:52;9.90;99.90
37300;DHT22;23184;51.902;12.836;2023-04-15T10:24:19;10.00;99.90
37300;DHT22;23184;51.902;12.836;2023-04-15T10:26:45;10.00;99.90
37300;DHT22;23184;51.902;12.836;2023-04-15T10:29:11;10.00;99.90
37300;DHT22;23184;51.902;12.836;2023-04-15T10:31:37;10.00;99.90
37300;DHT22;23184;51.902;12.836;2023-04-15T10:34:03;10.00;99.90
37300;DHT22;23184;51.902;12.836;2023-04-15T10:36:31;10.00;99.90
37300;DHT22;23184;51.902;12.836;2023-04-15T10:38:57;10.00;99.90
37300;DHT22;23184;51.902;12.836;2023-04-15T10:41:25;10.10;99.90
37300;DHT22;23184;51.902;12.836;2023-04-15T10:46:41;10.20;99.90
37300;DHT22;23184;51.902;12.836;2023-04-15T10:49:11;10.30;99.90
37300;DHT22;23184;51.902;12.836;2023-04-15T10:51:39;10.20;99.90
37300;DHT22;23184;51.902;12.836;2023-04-15T10:54:12;10.20;99.90
37300;DHT22;23184;51.902;12.836;2023-04-15T10:56:43;10.20;99.90
37300;DHT22;23184;51.902;12.836;2023-04-15T10:59:08;10.30;99.90
37300;DHT22;23184;51.902;12.836;2023-04-15T11:01:53;10.30;99.90
37300;DHT22;23184;51.902;12.836;2023-04-15T11:04:54;10.30;99.90
37300;DHT22;23184;51.902;12.836;2023-04-15T11:18:16;10.40;99.90
37300;DHT22;23184;51.902;12.836;2023-04-15T11:20:47;10.40;99.90
37300;DHT22;23184;51.902;12.836;2023-04-15T11:23:16;10.40;99.90
37300;DHT22;23184;51.902;12.836;2023-04-15T11:25:43;10.40;99.90
37300;DHT22;23184;51.902;12.836;2023-04-15T11:28:09;10.40;99.90
37300;DHT22;23184;51.902;12.836;2023-04-15T11:30:35;10.40;99.90
37300;DHT22;23184;51.902;12.836;2023-04-15T11:33:06;10.40;99.90
37300;DHT22;23184;51.902;12.836;2023-04-15T11:35:32;10.40;99.90
37300;DHT22;23184;51.902;12.836;2023-04-15T11:38:04;10.40;99.90
37300;DHT22;23184;51.902;12.836;2023-04-15T11:40:30;10.40;99.90
37300;DHT22;23184;51.902;12.836;2023-04-15T11:45:43;10.40;99.90
37300;DHT22;23184;51.902;12.836;2023-04-15T11:48:12;10.30;99.90
37300;DHT22;23184;51.902;12.836;2023-04-15T11:50:38;10.30;99.90
37300;DHT22;23184;51.902;12.836;2023-04-15T11:53:07;10.30;99.90
37300;DHT22;23184;51.902;12.836;2023-04-15T11:55:46;10.30;99.90
37300;DHT22;23184;51.902;12.836;2023-04-15T12:03:26;10.30;99.90
37300;DHT22;23184;51.902;12.836;2023-04-15T12:06:14;10.30;99.90
37300;DHT22;23184;51.902;12.836;2023-04-15T12:11:18;10.30;99.90
37300;DHT22;23184;51.902;12.836;2023-04-15T12:13:46;10.30;99.90
37300;DHT22;23184;51.902;12.836;2023-04-15T12:16:15;10.30;99.90
37300;DHT22;23184;51.902;12.836;2023-04-15T12:18:40;10.30;99.90
37300;DHT22;23184;51.902;12.836;2023-04-15T12:21:10;10.30;99.90
37300;DHT22;23184;51.902;12.836;2023-04-15T12:23:49;10.30;99.90
37300;DHT22;23184;51.902;12.836;2023-04-15T12:26:15;10.40;99.90
37300;DHT22;23184;51.902;12.836;2023-04-15T12:28:41;10.40;99.90
37300;DHT22;23184;51.902;12.836;2023-04-15T12:31:10;10.40;99.90
37300;DHT22;23184;51.902;12.836;2023-04-15T12:33:36;10.40;99.90
37300;DHT22;23184;51.902;12.836;2023-04-15T12:36:02;10.40;99.90
37300;DHT22;23184;51.902;12.836;2023-04-15T12:38:29;10.50;99.90
37300;DHT22;23184;51.902;12.836;2023-04-15T12:40:55;10.50;99.90
37300;DHT22;23184;51.902;12.836;2023-04-15T12:43:21;10.60;99.90
37300;DHT22;23184;51.902;12.836;2023-04-15T12:45:46;10.60;99.90
37300;DHT22;23184;51.902;12.836;2023-04-15T12:48:12;10.70;99.90
37300;DHT22;23184;51.902;12.836;2023-04-15T12:50:37;10.80;99.90
37300;DHT22;23184;51.902;12.836;2023-04-15T12:53:03;10.90;99.90
37300;DHT22;23184;51.902;12.836;2023-04-15T12:55:28;11.00;99.90
37300;DHT22;23184;51.902;12.836;2023-04-15T12:57:55;11.20;99.90
37300;DHT22;23184;51.902;12.836;2023-04-15T13:00:21;11.30;99.90
37300;DHT22;23184;51.902;12.836;2023-04-15T13:02:47;11.30;99.90
37300;DHT22;23184;51.902;12.836;2023-04-15T13:05:13;11.30;99.90
37300;DHT22;23184;51.902;12.836;2023-04-15T13:07:43;11.30;99.90
37300;DHT22;23184;51.902;12.836;2023-04-15T13:10:09;11.20;99.90
37300;DHT22;23184;51.902;12.836;2023-04-15T13:12:34;11.20;99.90
37300;DHT22;23184;51.902;12.836;2023-04-15T13:15:02;11.10;99.90
37300;DHT22;23184;51.902;12.836;2023-04-15T13:17:28;11.10;99.90
37300;DHT22;23184;51.902;12.836;2023-04-15T13:19:53;11.10;99.90
37300;DHT22;23184;51.902;12.836;2023-04-15T13:22:19;11.10;99.90
37300;DHT22;23184;51.902;12.836;2023-04-15T13:24:45;11.10;99.90
37300;DHT22;23184;51.902;12.836;2023-04-15T13:27:10;11.10;99.90
37300;DHT22;23184;51.902;12.836;2023-04-15T13:29:36;11.10;99.90
37300;DHT22;23184;51.902;12.836;2023-04-15T13:32:02;11.10;99.90
37300;DHT22;23184;51.902;12.836;2023-04-15T13:34:27;11.20;99.90
37300;DHT22;23184;51.902;12.836;2023-04-15T13:36:53;11.30;99.90
37300;DHT22;23184;51.902;12.836;2023-04-15T13:39:18;11.40;99.90
37300;DHT22;23184;51.902;12.836;2023-04-15T13:41:44;11.40;99.90
37300;DHT22;23184;51.902;12.836;2023-04-15T13:44:09;11.40;99.90
37300;DHT22;23184;51.902;12.836;2023-04-15T13:46:36;11.50;99.90
37300;DHT22;23184;51.902;12.836;2023-04-15T13:49:03;11.50;99.90
37300;DHT22;23184;51.902;12.836;2023-04-15T13:51:29;11.50;99.90
37300;DHT22;23184;51.902;12.836;2023-04-15T13:53:55;11.50;99.90
37300;DHT22;23184;51.902;12.836;2023-04-15T13:56:22;11.50;99.90
37300;DHT22;23184;51.902;12.836;2023-04-15T13:58:48;11.40;99.90
37300;DHT22;23184;51.902;12.836;2023-04-15T14:01:14;11.40;99.90
37300;DHT22;23184;51.902;12.836;2023-04-15T14:03:39;11.30;99.90
37300;DHT22;23184;51.902;12.836;2023-04-15T14:06:05;11.30;99.90
37300;DHT22;23184;51.902;12.836;2023-04-15T14:08:30;11.20;99.90
37300;DHT22;23184;51.902;12.836;2023-04-15T14:10:56;11.20;99.90
37300;DHT22;23184;51.902;12.836;2023-04-15T14:13:22;11.30;99.90
37300;DHT22;23184;51.902;12.836;2023-04-15T14:15:47;11.30;99.90
37300;DHT22;23184;51.902;12.836;2023-04-15T14:18:13;11.30;99.90
37300;DHT22;23184;51.902;12.836;2023-04-15T14:20:38;11.30;99.90
37300;DHT22;23184;51.902;12.836;2023-04-15T14:23:04;11.30;99.90
37300;DHT22;23184;51.902;12.836;2023-04-15T14:25:29;11.20;99.90
37300;DHT22;23184;51.902;12.836;2023-04-15T14:27:54;11.20;99.90
37300;DHT22;23184;51.902;12.836;2023-04-15T14:30:20;11.10;99.90
37300;DHT22;23184;51.902;12.836;2023-04-15T14:32:46;11.20;99.90
37300;DHT22;23184;51.902;12.836;2023-04-15T14:35:11;11.20;99.90
37300;DHT22;23184;51.902;12.836;2023-04-15T14:37:36;11.10;99.90
37300;DHT22;23184;51.902;12.836;2023-04-15T14:40:02;11.10;99.90
37300;DHT22;23184;51.902;12.836;2023-04-15T14:42:28;11.10;99.90
37300;DHT22;23184;51.902;12.836;2023-04-15T14:44:53;11.10;99.90
37300;DHT22;23184;51.902;12.836;2023-04-15T14:47:19;11.10;99.90
37300;DHT22;23184;51.902;12.836;2023-04-15T14:49:44;11.10;99.90
37300;DHT22;23184;51.902;12.836;2023-04-15T14:52:10;11.10;99.90
37300;DHT22;23184;51.902;12.836;2023-04-15T14:54:36;11.10;99.90
37300;DHT22;23184;51.902;12.836;2023-04-15T14:57:01;11.20;99.90
37300;DHT22;23184;51.902;12.836;2023-04-15T14:59:27;11.20;99.90
37300;DHT22;23184;51.902;12.836;2023-04-15T15:01:52;11.20;99.90
37300;DHT22;23184;51.902;12.836;2023-04-15T15:04:18;11.20;99.90
37300;DHT22;23184;51.902;12.836;2023-04-15T15:06:43;11.20;99.90
37300;DHT22;23184;51.902;12.836;2023-04-15T15:09:09;11.30;99.90
37300;DHT22;23184;51.902;12.836;2023-04-15T15:11:35;11.20;99.90
37300;DHT22;23184;51.902;12.836;2023-04-15T15:14:00;11.20;99.90
37300;DHT22;23184;51.902;12.836;2023-04-15T15:16:26;11.20;99.90
37300;DHT22;23184;51.902;12.836;2023-04-15T15:18:52;11.10;99.90
37300;DHT22;23184;51.902;12.836;2023-04-15T15:21:17;11.10;99.90
37300;DHT22;23184;51.902;12.836;2023-04-15T15:23:43;11.00;99.90
37300;DHT22;23184;51.902;12.836;2023-04-15T15:26:09;10.90;99.90
37300;DHT22;23184;51.902;12.836;2023-04-15T15:28:34;10.90;99.90
37300;DHT22;23184;51.902;12.836;2023-04-15T15:31:00;10.80;99.90
37300;DHT22;23184;51.902;12.836;2023-04-15T15:33:25;10.80;99.90
37300;DHT22;23184;51.902;12.836;2023-04-15T15:35:51;10.80;99.90
37300;DHT22;23184;51.902;12.836;2023-04-15T15:38:16;10.80;99.90
37300;DHT22;23184;51.902;12.836;2023-04-15T15:40:42;10.80;99.90
37300;DHT22;23184;51.902;12.836;2023-04-15T15:43:07;10.80;99.90
37300;DHT22;23184;51.902;12.836;2023-04-15T15:45:34;10.80;99.90